Terminal Aerodrome Forecast
Issued by NWS

Current Version | Previous Version | Text Only | Print | Product List | Glossary On
Versions: 1 2 3 4 5 6 7 8 9 10 11 12 13 14 15 16 17 18 19 20 21 22 23 24 25 26 27 28
314
FTUS41 KILN 231500 AAA
TAFLUK
TAF AMD
KLUK 231500Z 2315/2412 22010KT P6SM VCSH OVC012
      TEMPO 2315/2319 2SM -SHRA OVC008
     FM232200 27006KT 5SM BR BKN010
     FM240300 34002KT 4SM BR OVC012
     FM240600 35004KT 5SM BR BKN010
     FM240900 04008KT 3SM BR VCSH OVC008=

USA.gov is the U.S. government's official web portal to all federal, state and local government web resources and services.